Time;durP1;ratioP1;P1;durP2;ratioP2;P2;SDS_P1;SDS_P2;PMS_P1;PMS_P2;Temp;Humidity;BMP_temperature;BMP_pressure;BME280_temperature;BME280_humidity;BME280_pressure;Samples;Min_cycle;Max_cycle;Signal;HPM_P1;HPM_P2
2024/01/12 00:01:12;;;;;;;;;7.00;5.00;;;;;-4.30;96.77;101256.40;113167;239;39290;-51
2024/01/12 00:03:57;;;;;;;;;6.00;2.75;;;;;-4.23;96.95;101258.54;113134;239;40692;-51
2024/01/12 00:06:33;;;;;;;;;4.00;3.50;;;;;-4.14;97.17;101260.40;113185;239;40225;-51
2024/01/12 00:09:12;;;;;;;;;5.00;4.00;;;;;-4.06;97.12;101257.19;113163;239;39256;-50
2024/01/12 00:11:47;;;;;;;;;4.00;3.50;;;;;-4.02;97.16;101260.31;113186;239;39452;-55
2024/01/12 00:14:28;;;;;;;;;6.00;5.00;;;;;-4.01;97.06;101264.98;113171;239;39774;-56
2024/01/12 00:17:05;;;;;;;;;5.75;5.00;;;;;-3.95;97.06;101268.23;113211;238;39537;-51
2024/01/12 00:19:42;;;;;;;;;6.00;5.00;;;;;-3.91;97.00;101269.05;113201;239;39216;-50
2024/01/12 00:22:19;;;;;;;;;5.00;4.00;;;;;-3.88;97.08;101265.39;113144;239;39496;-55
2024/01/12 00:25:00;;;;;;;;;5.00;4.00;;;;;-3.85;97.02;101262.40;113110;239;40108;-54
2024/01/12 00:27:36;;;;;;;;;3.25;2.75;;;;;-3.87;96.92;101264.82;113169;239;39777;-51
2024/01/12 00:30:12;;;;;;;;;4.00;3.00;;;;;-3.87;96.73;101265.35;113120;239;39702;-55
2024/01/12 00:32:52;;;;;;;;;5.00;4.00;;;;;-3.95;96.72;101267.33;113141;239;39530;-55
2024/01/12 00:35:31;;;;;;;;;6.00;4.00;;;;;-4.05;96.76;101265.40;113146;239;40094;-55
2024/01/12 00:41:56;;;;;;;;;7.00;5.00;;;;;-4.19;96.44;101253.41;113101;239;39794;-51
2024/01/12 00:44:30;;;;;;;;;7.00;7.00;;;;;-4.34;96.22;101250.45;113155;239;41139;-51
2024/01/12 00:47:07;;;;;;;;;6.50;4.75;;;;;-4.48;96.12;101254.81;113155;239;39122;-52
2024/01/12 00:49:43;;;;;;;;;7.00;6.00;;;;;-4.63;96.13;101253.61;113172;239;41261;-52
2024/01/12 00:52:19;;;;;;;;;6.00;5.00;;;;;-4.76;96.01;101262.13;113232;239;40375;-52
2024/01/12 00:54:56;;;;;;;;;7.00;5.33;;;;;-4.87;95.90;101265.64;113202;239;39594;-52
2024/01/12 00:57:43;;;;;;;;;9.50;6.75;;;;;-4.98;95.80;101273.34;113158;239;39642;-57
2024/01/12 01:00:23;;;;;;;;;6.00;4.75;;;;;-5.08;95.73;101277.85;113183;239;38813;-52
2024/01/12 01:03:02;;;;;;;;;9.00;7.00;;;;;-5.18;95.73;101289.74;113169;239;39569;-51
2024/01/12 01:05:37;;;;;;;;;5.00;4.00;;;;;-5.29;95.54;101296.53;113157;239;38944;-55
2024/01/12 01:08:17;;;;;;;;;3.00;3.00;;;;;-5.40;95.55;101292.98;113133;239;39341;-55
2024/01/12 01:10:54;;;;;;;;;4.50;3.00;;;;;-5.52;95.49;101298.59;113132;238;39542;-55
2024/01/12 01:13:29;;;;;;;;;6.00;5.00;;;;;-5.59;95.39;101305.92;113146;239;41259;-55
2024/01/12 01:16:07;;;;;;;;;5.00;4.00;;;;;-5.68;95.37;101308.06;113164;239;39201;-50
2024/01/12 01:18:45;;;;;;;;;4.00;3.00;;;;;-5.82;95.31;101309.01;113154;239;40866;-51
2024/01/12 01:21:25;;;;;;;;;1.25;1.00;;;;;-5.94;95.35;101307.83;113112;239;40504;-55
2024/01/12 01:24:02;;;;;;;;;9.00;5.00;;;;;-6.01;95.30;101306.52;113113;239;41167;-55
2024/01/12 01:26:39;;;;;;;;;5.00;4.00;;;;;-6.11;95.25;101308.47;113171;239;39994;-52
2024/01/12 01:29:16;;;;;;;;;3.75;2.50;;;;;-6.18;95.18;101318.58;113114;239;40002;-51
2024/01/12 01:31:53;;;;;;;;;7.50;5.00;;;;;-6.24;95.21;101327.77;113165;239;39192;-52
2024/01/12 01:34:28;;;;;;;;;5.00;4.00;;;;;-6.29;95.14;101329.04;113143;239;40986;-52
2024/01/12 01:37:09;;;;;;;;;8.75;6.75;;;;;-6.37;95.09;101341.46;113142;239;39660;-52
2024/01/12 01:39:45;;;;;;;;;6.00;4.75;;;;;-6.38;95.16;101352.00;113140;239;38969;-51
2024/01/12 01:42:19;;;;;;;;;9.25;4.00;;;;;-6.39;95.10;101355.01;113217;239;41180;-52
2024/01/12 01:44:58;;;;;;;;;5.00;3.75;;;;;-6.37;95.10;101361.75;113217;238;39343;-52
2024/01/12 01:47:35;;;;;;;;;4.00;3.00;;;;;-6.40;95.06;101372.40;113166;238;40436;-52
2024/01/12 01:50:11;;;;;;;;;4.00;2.50;;;;;-6.45;95.09;101374.86;113158;239;39393;-56
2024/01/12 01:52:50;;;;;;;;;4.00;2.50;;;;;-6.48;95.07;101378.34;113143;239;39609;-56
2024/01/12 01:55:31;;;;;;;;;3.00;3.00;;;;;-6.47;95.25;101385.98;113139;238;40707;-56
2024/01/12 01:58:10;;;;;;;;;6.50;5.00;;;;;-6.44;95.47;101375.18;113171;239;39915;-56
2024/01/12 02:00:48;;;;;;;;;3.00;3.00;;;;;-6.45;95.47;101363.82;113145;239;39317;-56
2024/01/12 02:03:23;;;;;;;;;2.00;2.00;;;;;-6.53;95.44;101357.84;113168;239;40203;-57
2024/01/12 02:06:03;;;;;;;;;6.00;4.00;;;;;-6.58;95.37;101363.10;113138;238;39638;-50
2024/01/12 02:08:44;;;;;;;;;7.00;6.00;;;;;-6.61;95.28;101371.79;113139;238;39511;-50
2024/01/12 02:11:27;;;;;;;;;6.50;3.50;;;;;-6.61;95.25;101371.95;113151;239;40604;-50
2024/01/12 02:14:06;;;;;;;;;4.67;3.00;;;;;-6.65;95.24;101367.20;113106;239;39862;-50
2024/01/12 02:16:47;;;;;;;;;4.67;4.00;;;;;-6.76;95.05;101363.26;113140;239;40392;-51
2024/01/12 02:19:29;;;;;;;;;5.00;4.00;;;;;-6.87;94.88;101366.98;113145;239;39805;-51
2024/01/12 02:22:03;;;;;;;;;5.00;4.00;;;;;-6.96;94.70;101371.00;113197;238;40082;-55
2024/01/12 02:24:39;;;;;;;;;9.00;6.00;;;;;-7.01;94.49;101374.15;113131;239;39394;-55
2024/01/12 02:27:22;;;;;;;;;8.00;5.00;;;;;-7.01;94.44;101378.73;113143;239;39527;-51
2024/01/12 02:30:00;;;;;;;;;6.00;5.00;;;;;-7.06;94.41;101382.39;113209;239;39544;-51
2024/01/12 02:32:38;;;;;;;;;2.75;2.50;;;;;-7.14;94.43;101395.44;113272;239;39880;-55
2024/01/12 02:35:17;;;;;;;;;5.25;4.75;;;;;-7.23;94.34;101398.54;113199;239;39271;-55
2024/01/12 02:37:53;;;;;;;;;5.00;4.00;;;;;-7.31;94.35;101395.50;113125;238;39769;-56
2024/01/12 02:40:30;;;;;;;;;3.00;2.75;;;;;-7.43;94.32;101393.81;113228;239;39723;-52
2024/01/12 02:43:14;;;;;;;;;4.00;4.00;;;;;-7.56;94.28;101391.81;113178;239;40264;-51
2024/01/12 02:45:55;;;;;;;;;3.50;2.25;;;;;-7.65;94.24;101395.99;113186;239;39778;-55
2024/01/12 02:48:33;;;;;;;;;3.50;3.00;;;;;-7.75;94.22;101394.22;113124;239;40738;-54
2024/01/12 02:51:14;;;;;;;;;3.00;3.00;;;;;-7.83;94.17;101388.52;113115;238;40508;-54
2024/01/12 02:53:52;;;;;;;;;6.00;4.00;;;;;-7.91;94.16;101392.98;113111;238;39752;-55
2024/01/12 02:56:29;;;;;;;;;4.00;3.00;;;;;-7.94;94.10;101390.61;113136;238;40861;-51
2024/01/12 02:59:06;;;;;;;;;5.00;3.00;;;;;-8.00;94.01;101390.46;113134;238;39701;-51
2024/01/12 03:01:41;;;;;;;;;5.25;3.50;;;;;-8.03;94.02;101395.11;113131;239;39651;-56
2024/01/12 03:04:21;;;;;;;;;3.00;2.00;;;;;-8.16;94.02;101397.60;113144;238;39605;-57
2024/01/12 03:06:57;;;;;;;;;2.67;1.00;;;;;-8.26;93.91;101395.66;113095;239;40985;-52
2024/01/12 03:09:35;;;;;;;;;3.50;3.00;;;;;-8.36;93.86;101398.98;113105;239;39819;-52
2024/01/12 03:12:17;;;;;;;;;4.00;3.00;;;;;-8.41;93.81;101401.54;113186;239;40806;-51
2024/01/12 03:14:58;;;;;;;;;4.00;3.00;;;;;-8.51;93.69;101405.88;113155;239;39564;-51
2024/01/12 03:17:35;;;;;;;;;5.00;4.00;;;;;-8.61;93.66;101402.67;113191;239;39860;-51
2024/01/12 03:20:11;;;;;;;;;5.00;4.00;;;;;-8.71;93.68;101397.37;113161;239;41121;-52
2024/01/12 03:22:53;;;;;;;;;5.00;4.25;;;;;-8.77;93.72;101397.91;113158;239;39761;-52
2024/01/12 03:25:30;;;;;;;;;4.00;3.00;;;;;-8.74;93.60;101397.30;113160;238;40156;-51
2024/01/12 03:28:08;;;;;;;;;7.00;5.75;;;;;-8.77;93.47;101393.71;113178;239;39233;-51
2024/01/12 03:30:47;;;;;;;;;3.00;3.00;;;;;-8.71;93.33;101390.40;113169;239;40765;-51
2024/01/12 03:33:23;;;;;;;;;5.00;4.00;;;;;-8.67;93.03;101392.55;113101;239;39297;-51
2024/01/12 03:36:02;;;;;;;;;6.00;5.00;;;;;-8.69;93.07;101395.92;113087;239;39058;-56
2024/01/12 03:38:44;;;;;;;;;5.00;3.67;;;;;-8.70;92.93;101395.08;113116;239;40937;-56
2024/01/12 03:41:21;;;;;;;;;6.00;5.00;;;;;-8.74;92.86;101397.29;113179;239;40640;-51
2024/01/12 03:43:58;;;;;;;;;3.50;2.00;;;;;-8.70;92.93;101404.17;113139;239;40420;-51
2024/01/12 03:46:35;;;;;;;;;5.00;4.00;;;;;-8.66;92.84;101408.59;113153;239;40191;-56
2024/01/12 03:49:11;;;;;;;;;4.00;3.00;;;;;-8.62;92.76;101402.70;113106;238;39647;-56
2024/01/12 03:51:53;;;;;;;;;5.00;4.00;;;;;-8.61;92.65;101406.53;113121;238;38947;-55
2024/01/12 03:54:34;;;;;;;;;5.00;3.00;;;;;-8.63;92.44;101405.00;113161;239;40315;-55
2024/01/12 03:57:12;;;;;;;;;2.25;2.00;;;;;-8.78;92.62;101403.67;113136;239;40862;-51
2024/01/12 03:59:50;;;;;;;;;2.00;2.00;;;;;-8.84;92.54;101414.16;113125;239;40304;-50
2024/01/12 04:02:25;;;;;;;;;4.00;4.00;;;;;-8.82;92.37;101421.09;113091;239;40602;-51
2024/01/12 04:05:01;;;;;;;;;3.00;2.50;;;;;-8.90;92.21;101428.46;113162;239;39125;-51
2024/01/12 04:07:36;;;;;;;;;3.25;3.00;;;;;-9.01;92.21;101429.46;113165;239;39161;-54
2024/01/12 04:10:12;;;;;;;;;3.00;2.25;;;;;-9.06;92.10;101431.34;113182;238;40153;-55
2024/01/12 04:12:47;;;;;;;;;4.00;3.00;;;;;-9.06;91.89;101426.81;113211;239;40902;-56
2024/01/12 04:15:22;;;;;;;;;5.00;4.00;;;;;-9.08;91.87;101427.23;113221;239;39677;-52
2024/01/12 04:17:57;;;;;;;;;3.00;2.00;;;;;-9.10;91.84;101428.13;113130;239;41607;-51
2024/01/12 04:20:32;;;;;;;;;6.00;4.00;;;;;-9.17;91.88;101428.83;113093;239;39363;-52
2024/01/12 04:23:09;;;;;;;;;6.00;5.00;;;;;-9.18;91.77;101429.73;113119;238;40940;-52
2024/01/12 04:25:45;;;;;;;;;4.00;4.00;;;;;-9.23;91.71;101430.91;113172;239;39251;-56
2024/01/12 04:28:22;;;;;;;;;4.00;4.00;;;;;-9.23;91.74;101430.73;113142;238;39835;-56
2024/01/12 04:31:04;;;;;;;;;4.00;3.50;;;;;-9.31;91.87;101429.02;113119;239;39876;-50
2024/01/12 04:33:38;;;;;;;;;4.25;4.00;;;;;-9.29;91.83;101431.25;113131;239;40471;-50
2024/01/12 04:36:13;;;;;;;;;7.00;4.00;;;;;-9.26;91.65;101436.07;113148;239;40620;-54
2024/01/12 04:38:52;;;;;;;;;4.00;3.00;;;;;-9.24;91.64;101435.31;113127;239;39846;-55
2024/01/12 04:41:29;;;;;;;;;4.00;3.00;;;;;-9.20;91.56;101435.54;113192;239;40645;-50
2024/01/12 04:44:04;;;;;;;;;3.67;3.33;;;;;-9.14;91.51;101437.33;113159;239;40118;-51
2024/01/12 04:46:42;;;;;;;;;4.50;4.00;;;;;-9.13;91.57;101436.95;113193;238;41384;-51
2024/01/12 04:49:19;;;;;;;;;3.00;3.00;;;;;-9.12;91.56;101433.77;113128;239;39246;-51
2024/01/12 04:51:54;;;;;;;;;6.00;4.00;;;;;-9.20;91.64;101438.36;113141;239;42304;-55
2024/01/12 04:54:29;;;;;;;;;6.00;6.00;;;;;-9.15;91.72;101443.80;113193;239;39732;-55
2024/01/12 04:57:05;;;;;;;;;3.25;3.00;;;;;-9.12;91.75;101444.60;113234;238;39445;-51
2024/01/12 04:59:39;;;;;;;;;4.00;3.00;;;;;-9.09;91.87;101445.55;113183;239;40619;-51
2024/01/12 05:02:16;;;;;;;;;6.00;4.00;;;;;-9.07;91.82;101443.94;113184;239;39519;-55
2024/01/12 05:04:51;;;;;;;;;7.00;5.00;;;;;-9.05;91.93;101444.58;112758;238;535065;-56
2024/01/12 05:07:26;;;;;;;;;5.00;4.00;;;;;-8.99;91.82;101442.34;113134;239;39628;-56
2024/01/12 05:10:03;;;;;;;;;3.25;3.00;;;;;-8.98;91.91;101445.09;113117;239;39520;-56
2024/01/12 05:12:39;;;;;;;;;5.00;3.75;;;;;-8.96;91.84;101440.33;113137;239;40818;-51
2024/01/12 05:15:14;;;;;;;;;6.00;4.00;;;;;-8.93;91.86;101439.91;113145;239;39130;-51
2024/01/12 05:17:50;;;;;;;;;5.75;5.00;;;;;-8.91;91.73;101436.86;113161;239;39796;-51
2024/01/12 05:20:27;;;;;;;;;6.00;5.00;;;;;-8.89;91.65;101439.09;113098;239;40374;-56
2024/01/12 05:23:03;;;;;;;;;8.75;5.25;;;;;-8.86;91.62;101444.07;113115;239;39256;-56
2024/01/12 05:25:40;;;;;;;;;3.75;3.00;;;;;-8.78;91.57;101444.71;113161;239;39486;-52
2024/01/12 05:28:19;;;;;;;;;7.25;5.00;;;;;-8.73;91.57;101448.96;113133;239;40709;-52
2024/01/12 05:30:57;;;;;;;;;11.50;8.50;;;;;-8.69;91.58;101450.73;113176;239;39460;-56
2024/01/12 05:33:31;;;;;;;;;6.50;6.00;;;;;-8.65;91.73;101448.55;113113;239;39816;-56
2024/01/12 05:36:06;;;;;;;;;7.00;5.75;;;;;-8.64;91.85;101446.59;113181;239;40224;-54
2024/01/12 05:38:41;;;;;;;;;7.00;6.00;;;;;-8.59;91.86;101450.64;113156;239;39605;-54
2024/01/12 05:41:19;;;;;;;;;6.00;5.00;;;;;-8.61;91.98;101449.12;113191;239;39539;-52
2024/01/12 05:43:57;;;;;;;;;8.00;4.50;;;;;-8.58;91.87;101441.17;113208;239;40810;-51
2024/01/12 05:46:33;;;;;;;;;4.75;3.00;;;;;-8.61;91.95;101439.70;113282;239;40966;-55
2024/01/12 05:49:10;;;;;;;;;9.75;8.00;;;;;-8.57;91.95;101440.27;113206;239;40720;-54
2024/01/12 05:51:47;;;;;;;;;10.00;7.00;;;;;-8.57;91.86;101434.67;113261;239;40656;-52
2024/01/12 05:54:27;;;;;;;;;9.00;7.00;;;;;-8.56;91.88;101432.39;113140;238;40537;-52
2024/01/12 05:57:04;;;;;;;;;7.00;5.00;;;;;-8.49;91.78;101430.42;113169;239;39112;-55
2024/01/12 05:59:44;;;;;;;;;18.50;16.50;;;;;-8.53;91.98;101430.73;113102;239;40056;-55
2024/01/12 06:02:21;;;;;;;;;8.75;7.50;;;;;-8.51;91.84;101424.21;113141;239;39737;-56
2024/01/12 06:05:03;;;;;;;;;8.00;6.33;;;;;-8.50;91.70;101422.95;113151;239;40042;-56
2024/01/12 06:07:44;;;;;;;;;7.00;6.00;;;;;-8.48;91.80;101432.33;113086;239;39460;-55
2024/01/12 06:10:20;;;;;;;;;11.00;7.00;;;;;-8.42;91.80;101433.88;113183;239;40494;-51
2024/01/12 06:13:00;;;;;;;;;11.00;7.00;;;;;-8.37;91.75;101428.52;113106;239;40212;-51
2024/01/12 06:15:38;;;;;;;;;5.00;4.00;;;;;-8.36;91.78;101426.39;113094;239;39279;-55
2024/01/12 06:18:14;;;;;;;;;7.00;5.00;;;;;-8.28;91.79;101422.66;113155;239;39312;-55
2024/01/12 06:20:48;;;;;;;;;7.00;5.00;;;;;-8.27;91.84;101420.16;113186;239;39000;-55
2024/01/12 06:23:25;;;;;;;;;7.00;6.00;;;;;-8.23;91.79;101414.24;113159;238;41197;-55
2024/01/12 06:26:02;;;;;;;;;10.75;8.00;;;;;-8.20;91.99;101415.55;113155;239;40616;-51
2024/01/12 06:28:36;;;;;;;;;10.50;7.50;;;;;-8.13;91.93;101414.29;113196;239;40088;-51
2024/01/12 06:31:17;;;;;;;;;11.00;6.00;;;;;-8.07;91.94;101420.21;113185;239;40906;-52
2024/01/12 06:33:54;;;;;;;;;6.00;5.00;;;;;-7.99;92.01;101419.10;113169;239;39531;-52
2024/01/12 06:36:32;;;;;;;;;8.00;6.25;;;;;-7.95;92.06;101421.93;113178;239;39198;-54
2024/01/12 06:39:09;;;;;;;;;6.50;5.50;;;;;-7.86;92.18;101414.13;113178;239;39814;-55
2024/01/12 06:41:52;;;;;;;;;6.25;5.00;;;;;-7.79;92.13;101414.77;113164;239;39760;-55
2024/01/12 06:44:28;;;;;;;;;7.00;5.00;;;;;-7.69;92.12;101411.51;113142;239;39438;-55
2024/01/12 06:47:06;;;;;;;;;5.50;5.00;;;;;-7.65;92.12;101411.16;113176;239;41124;-56
2024/01/12 06:49:47;;;;;;;;;7.00;5.00;;;;;-7.60;92.16;101408.93;113120;239;39327;-50
2024/01/12 06:52:23;;;;;;;;;8.00;5.50;;;;;-7.56;92.27;101414.71;113115;239;40300;-52
2024/01/12 06:55:01;;;;;;;;;6.00;5.00;;;;;-7.48;92.33;101418.12;113122;239;40375;-51
2024/01/12 06:57:38;;;;;;;;;4.00;4.00;;;;;-7.41;92.25;101425.59;113128;239;40284;-51
2024/01/12 07:00:16;;;;;;;;;5.33;3.67;;;;;-7.34;92.44;101428.85;113082;239;42533;-53
2024/01/12 07:02:56;;;;;;;;;7.00;5.00;;;;;-7.21;92.53;101431.41;113193;239;39312;-52
2024/01/12 07:05:32;;;;;;;;;6.00;5.00;;;;;-7.09;92.38;101431.52;113182;238;40245;-56
2024/01/12 07:08:08;;;;;;;;;6.00;5.00;;;;;-7.09;92.40;101430.96;113158;239;40447;-57
2024/01/12 07:10:45;;;;;;;;;7.67;5.00;;;;;-7.02;92.39;101433.69;113198;239;39435;-51
2024/01/12 07:13:26;;;;;;;;;6.00;5.00;;;;;-6.92;92.18;101439.64;113166;239;40258;-51
2024/01/12 07:16:05;;;;;;;;;9.50;6.00;;;;;-6.89;92.21;101441.80;113101;239;40680;-51
2024/01/12 07:18:44;;;;;;;;;7.25;5.00;;;;;-6.84;92.06;101443.39;113124;239;39175;-51
2024/01/12 07:21:25;;;;;;;;;10.00;7.00;;;;;-6.83;92.00;101444.75;113158;238;39525;-55
2024/01/12 07:24:04;;;;;;;;;10.00;8.00;;;;;-6.85;91.96;101445.70;113146;239;39318;-55
2024/01/12 07:26:43;;;;;;;;;8.50;6.75;;;;;-6.78;92.01;101441.41;113175;239;39131;-52
2024/01/12 07:29:23;;;;;;;;;8.50;6.00;;;;;-6.65;92.05;101436.20;113127;238;39715;-56
2024/01/12 07:32:01;;;;;;;;;10.25;8.25;;;;;-6.52;92.03;101440.48;113142;239;39578;-51
2024/01/12 07:34:45;;;;;;;;;9.00;7.00;;;;;-6.49;91.99;101436.36;113099;239;39512;-56
2024/01/12 07:37:24;;;;;;;;;8.75;7.00;;;;;-6.48;92.18;101434.36;113165;239;39347;-57
2024/01/12 07:40:04;;;;;;;;;10.00;8.00;;;;;-6.44;92.13;101433.16;113150;239;39189;-52
2024/01/12 07:42:41;;;;;;;;;10.00;8.00;;;;;-6.45;92.29;101431.65;113154;239;40776;-58
2024/01/12 07:45:22;;;;;;;;;8.00;7.00;;;;;-6.45;92.44;101432.86;113197;239;39866;-56
2024/01/12 07:47:56;;;;;;;;;9.67;7.67;;;;;-6.45;92.56;101430.42;113147;239;39423;-56
2024/01/12 07:50:35;;;;;;;;;8.00;6.00;;;;;-6.46;92.62;101425.04;113195;239;39630;-53
2024/01/12 07:53:13;;;;;;;;;8.00;5.00;;;;;-6.42;92.69;101420.67;113159;239;39153;-53
2024/01/12 07:55:49;;;;;;;;;7.00;5.00;;;;;-6.38;92.83;101414.88;113217;239;39289;-54
2024/01/12 07:58:25;;;;;;;;;7.25;4.50;;;;;-6.32;93.00;101415.18;113121;239;39882;-53
2024/01/12 08:01:05;;;;;;;;;7.50;5.00;;;;;-6.24;92.96;101412.06;113189;238;40075;-55
2024/01/12 08:03:44;;;;;;;;;7.50;6.00;;;;;-6.14;92.96;101409.76;113140;239;39415;-57
2024/01/12 08:06:23;;;;;;;;;8.00;6.00;;;;;-6.03;93.07;101408.42;113112;239;39155;-56
2024/01/12 08:08:58;;;;;;;;;10.00;8.00;;;;;-5.93;93.03;101400.70;113125;239;39761;-56
2024/01/12 08:11:37;;;;;;;;;10.00;7.00;;;;;-5.88;93.07;101399.25;113164;239;39711;-57
2024/01/12 08:14:16;;;;;;;;;9.50;7.25;;;;;-5.83;93.15;101393.77;113100;239;39581;-51
2024/01/12 08:16:54;;;;;;;;;10.33;7.67;;;;;-5.74;93.23;101393.55;113121;239;40486;-52
2024/01/12 08:19:29;;;;;;;;;10.50;7.50;;;;;-5.67;93.18;101395.38;113108;239;40028;-52
2024/01/12 08:22:04;;;;;;;;;12.00;7.00;;;;;-5.63;93.29;101392.08;113081;239;40822;-51
2024/01/12 08:24:40;;;;;;;;;10.00;8.00;;;;;-5.56;93.19;101390.71;113159;239;39724;-51
2024/01/12 08:27:18;;;;;;;;;11.00;9.00;;;;;-5.48;93.24;101390.91;113154;239;40552;-51
2024/01/12 08:29:52;;;;;;;;;9.00;8.00;;;;;-5.44;93.38;101390.21;113134;239;39244;-51
2024/01/12 08:32:29;;;;;;;;;22.50;15.25;;;;;-5.37;93.29;101386.58;113212;239;40568;-51
2024/01/12 08:35:04;;;;;;;;;18.50;13.00;;;;;-5.32;93.38;101388.48;113168;239;40041;-52
2024/01/12 08:37:43;;;;;;;;;25.00;16.00;;;;;-5.23;93.63;101392.31;113108;239;40075;-52
2024/01/12 08:40:18;;;;;;;;;17.00;12.25;;;;;-5.16;93.83;101378.80;113193;239;39642;-51
2024/01/12 08:42:57;;;;;;;;;19.50;15.50;;;;;-4.98;93.73;101381.20;113134;238;39052;-55
2024/01/12 08:45:32;;;;;;;;;20.33;15.00;;;;;-4.83;93.73;101384.55;113202;239;39638;-52
2024/01/12 08:48:10;;;;;;;;;18.00;12.50;;;;;-4.70;93.68;101382.22;113169;239;39010;-52
2024/01/12 08:50:44;;;;;;;;;17.25;13.75;;;;;-4.50;93.57;101376.05;113135;239;41097;-53
2024/01/12 08:53:22;;;;;;;;;19.50;13.50;;;;;-4.38;93.48;101376.14;113123;238;39373;-53
2024/01/12 08:56:01;;;;;;;;;14.33;11.67;;;;;-4.34;93.65;101369.64;113178;239;41003;-53
2024/01/12 08:58:42;;;;;;;;;16.00;12.00;;;;;-4.20;93.52;101374.77;113140;239;41280;-52
2024/01/12 09:01:20;;;;;;;;;15.00;13.00;;;;;-4.14;93.66;101372.73;113152;239;39626;-56
2024/01/12 09:03:59;;;;;;;;;12.50;10.00;;;;;-4.07;93.72;101374.68;113152;239;39788;-56
2024/01/12 09:06:35;;;;;;;;;14.00;10.00;;;;;-3.96;93.67;101376.25;113103;239;40640;-52
2024/01/12 09:09:12;;;;;;;;;14.00;12.00;;;;;-3.94;93.73;101377.94;113122;239;39893;-51
2024/01/12 09:11:46;;;;;;;;;13.00;11.00;;;;;-3.92;93.92;101377.30;113155;239;39733;-54
2024/01/12 09:14:24;;;;;;;;;18.00;13.00;;;;;-3.81;93.77;101360.77;113161;239;39371;-54
2024/01/12 09:17:03;;;;;;;;;20.00;15.00;;;;;-3.65;93.40;101360.85;113175;239;39734;-51
2024/01/12 09:19:42;;;;;;;;;10.00;8.75;;;;;-3.54;93.41;101359.06;113154;239;40536;-52
2024/01/12 09:22:18;;;;;;;;;16.25;12.75;;;;;-3.47;93.58;101355.16;113100;239;39630;-51
2024/01/12 09:24:52;;;;;;;;;14.25;9.00;;;;;-3.38;93.51;101348.20;113177;239;39226;-57
2024/01/12 09:27:32;;;;;;;;;17.75;12.00;;;;;-3.30;93.08;101344.43;113151;239;39692;-50
2024/01/12 09:30:07;;;;;;;;;11.50;10.00;;;;;-3.30;92.93;101338.83;113150;239;39198;-55
2024/01/12 09:32:43;;;;;;;;;10.33;8.00;;;;;-3.29;92.62;101337.16;113116;239;39136;-56
2024/01/12 09:35:16;;;;;;;;;11.25;9.25;;;;;-3.28;92.91;101339.21;113162;239;39919;-53
2024/01/12 09:37:58;;;;;;;;;18.25;12.25;;;;;-3.20;92.70;101333.15;113148;239;39648;-52
2024/01/12 09:40:36;;;;;;;;;19.00;14.00;;;;;-3.27;92.52;101332.87;113177;239;40425;-57
2024/01/12 09:43:20;;;;;;;;;17.00;12.25;;;;;-3.24;92.42;101328.14;113132;239;39631;-57
2024/01/12 09:45:59;;;;;;;;;19.00;12.00;;;;;-3.28;92.64;101321.27;113143;239;40122;-55
2024/01/12 09:48:37;;;;;;;;;16.25;12.00;;;;;-3.20;92.63;101311.52;113213;239;38647;-51
2024/01/12 09:51:25;;;;;;;;;15.75;12.00;;;;;-3.14;92.72;101305.56;113200;239;40296;-52
2024/01/12 09:54:02;;;;;;;;;23.00;16.00;;;;;-3.10;92.65;101302.16;113135;239;39061;-52
2024/01/12 09:56:40;;;;;;;;;25.00;18.75;;;;;-3.07;92.66;101302.85;113109;239;40995;-55
2024/01/12 09:59:22;;;;;;;;;19.00;14.00;;;;;-2.98;92.59;101292.72;113096;239;39471;-55
2024/01/12 10:02:01;;;;;;;;;24.67;17.00;;;;;-2.88;92.37;101293.94;113169;239;40192;-51
2024/01/12 10:04:36;;;;;;;;;20.25;16.00;;;;;-2.78;92.22;101286.19;113183;239;38862;-52
2024/01/12 10:07:10;;;;;;;;;21.00;16.75;;;;;-2.72;92.27;101281.80;113207;239;40164;-55
2024/01/12 10:09:47;;;;;;;;;21.33;14.33;;;;;-2.64;92.20;101281.84;113147;239;39809;-52
2024/01/12 10:12:30;;;;;;;;;20.00;13.50;;;;;-2.63;92.04;101293.09;113153;239;39277;-56
2024/01/12 10:15:09;;;;;;;;;18.00;14.00;;;;;-2.70;91.94;101290.83;113158;239;40553;-56
2024/01/12 10:17:43;;;;;;;;;23.25;18.25;;;;;-2.78;91.75;101283.35;113165;238;39326;-53
2024/01/12 10:20:22;;;;;;;;;16.00;13.00;;;;;-2.78;91.51;101269.10;113165;238;39237;-56
2024/01/12 10:23:03;;;;;;;;;17.25;13.00;;;;;-2.49;91.32;101257.40;113159;239;39692;-57
2024/01/12 10:25:40;;;;;;;;;17.50;13.50;;;;;-1.96;91.49;101258.41;113140;239;39150;-53
2024/01/12 10:28:21;;;;;;;;;10.50;8.00;;;;;-1.59;91.51;101260.25;113102;239;40193;-53
2024/01/12 10:31:08;;;;;;;;;13.75;10.50;;;;;-1.51;90.99;101256.60;113210;239;39518;-52
2024/01/12 10:33:47;;;;;;;;;12.00;10.00;;;;;-1.69;90.63;101250.62;113168;239;38966;-52
2024/01/12 10:36:30;;;;;;;;;11.75;9.00;;;;;-1.80;89.90;101252.19;113218;239;40540;-51
2024/01/12 10:39:09;;;;;;;;;14.00;10.67;;;;;-1.92;89.66;101250.39;113157;239;39218;-51
2024/01/12 10:41:49;;;;;;;;;15.00;11.00;;;;;-2.08;89.39;101244.44;113150;239;40534;-51
2024/01/12 10:44:34;;;;;;;;;14.00;10.00;;;;;-2.23;88.69;101238.11;113125;239;39839;-55
2024/01/12 10:47:21;;;;;;;;;14.67;12.00;;;;;-2.28;88.78;101242.83;113145;239;39781;-52
2024/01/12 10:50:07;;;;;;;;;11.00;9.00;;;;;-2.31;88.91;101240.73;113108;238;40607;-52
2024/01/12 10:53:00;;;;;;;;;14.00;10.00;;;;;-2.36;88.89;101244.52;113115;239;40103;-51
2024/01/12 10:55:43;;;;;;;;;11.00;10.00;;;;;-2.41;88.82;101241.58;113182;239;39644;-52
2024/01/12 10:58:20;;;;;;;;;11.75;8.25;;;;;-2.44;88.83;101236.14;113141;239;40120;-52
2024/01/12 11:00:55;;;;;;;;;10.00;9.00;;;;;-2.52;88.48;101233.08;113168;239;41065;-56
2024/01/12 11:03:31;;;;;;;;;9.50;8.00;;;;;-2.56;88.50;101227.45;113138;239;41198;-52
2024/01/12 11:06:05;;;;;;;;;12.00;7.67;;;;;-2.57;88.65;101225.92;113183;239;41238;-56
2024/01/12 11:08:41;;;;;;;;;14.00;11.00;;;;;-2.56;88.79;101218.49;113155;239;41016;-55
2024/01/12 11:11:22;;;;;;;;;12.67;8.00;;;;;-2.60;88.51;101211.52;113198;239;39360;-52
2024/01/12 11:13:58;;;;;;;;;11.00;8.00;;;;;-2.62;88.46;101207.56;113165;239;38852;-53
2024/01/12 11:16:33;;;;;;;;;10.25;8.00;;;;;-2.64;88.66;101204.83;113170;239;39984;-52
2024/01/12 11:19:16;;;;;;;;;13.67;10.00;;;;;-2.62;88.39;101201.04;113143;238;39768;-52
2024/01/12 11:22:02;;;;;;;;;10.00;7.00;;;;;-2.58;88.66;101201.17;113169;239;39556;-56
2024/01/12 11:24:50;;;;;;;;;7.25;6.00;;;;;-2.47;88.60;101200.70;113107;239;40764;-56
2024/01/12 11:27:35;;;;;;;;;8.00;6.00;;;;;-2.41;87.90;101191.52;113183;239;41177;-52
2024/01/12 11:30:18;;;;;;;;;15.25;10.00;;;;;-2.36;88.03;101188.45;113162;238;39619;-55
2024/01/12 11:33:05;;;;;;;;;17.00;10.00;;;;;-2.26;88.01;101183.45;113151;239;39280;-56
2024/01/12 11:35:46;;;;;;;;;16.00;12.00;;;;;-2.06;88.17;101173.23;113180;239;39100;-52
2024/01/12 11:38:25;;;;;;;;;18.00;12.00;;;;;-1.87;88.43;101165.02;113273;239;40796;-51
2024/01/12 11:41:12;;;;;;;;;16.00;12.75;;;;;-1.59;88.19;101160.14;113203;239;39174;-57
2024/01/12 11:43:58;;;;;;;;;15.00;11.25;;;;;-1.40;88.18;101158.59;113198;239;40077;-56
2024/01/12 11:46:38;;;;;;;;;15.00;10.00;;;;;-1.18;88.03;101149.83;113195;239;39471;-56
2024/01/12 11:49:25;;;;;;;;;14.00;11.00;;;;;-1.06;87.71;101144.98;113179;239;39707;-54
2024/01/12 11:52:09;;;;;;;;;13.00;10.00;;;;;-1.01;87.39;101139.88;113165;239;40378;-56
2024/01/12 11:54:47;;;;;;;;;16.00;11.00;;;;;-1.00;87.20;101129.16;113127;238;40453;-51
2024/01/12 11:57:28;;;;;;;;;13.00;11.00;;;;;-0.93;86.94;101132.09;113118;238;40116;-52
2024/01/12 12:00:09;;;;;;;;;7.50;6.00;;;;;-0.87;86.31;101131.90;113117;239;39425;-54
2024/01/12 12:02:46;;;;;;;;;11.00;7.00;;;;;-0.94;85.21;101123.68;113081;239;39329;-55
2024/01/12 12:05:25;;;;;;;;;10.00;7.00;;;;;-1.01;85.09;101116.17;113119;238;39732;-55
2024/01/12 12:08:02;;;;;;;;;6.75;5.00;;;;;-1.09;84.77;101101.33;113113;239;39315;-56
2024/01/12 12:10:42;;;;;;;;;9.00;7.75;;;;;-1.11;85.04;101099.19;113157;239;40098;-57
2024/01/12 12:13:18;;;;;;;;;7.00;7.00;;;;;-1.16;84.90;101085.16;113182;239;39084;-52
2024/01/12 12:15:56;;;;;;;;;5.67;5.00;;;;;-1.22;84.74;101079.02;113217;239;40054;-52